createdAt,value
2023-08-13T00:02:06.545Z,20.02
2023-08-13T00:07:08.589Z,19.89
2023-08-13T00:12:10.446Z,19.92
2023-08-13T00:17:12.484Z,20.12
2023-08-13T00:22:14.769Z,20.10
2023-08-13T00:27:16.494Z,20.14
2023-08-13T00:32:18.261Z,20.17
2023-08-13T00:37:20.171Z,20.23
2023-08-13T00:42:22.084Z,19.86
2023-08-13T00:47:24.953Z,19.59
2023-08-13T00:52:26.976Z,19.58
2023-08-13T00:57:28.798Z,19.50
2023-08-13T01:02:30.656Z,19.46
2023-08-13T01:08:01.674Z,19.38
2023-08-13T01:13:24.011Z,19.38
2023-08-13T01:18:27.983Z,19.45
2023-08-13T01:23:29.799Z,19.52
2023-08-13T01:28:37.644Z,19.63
2023-08-13T01:33:43.695Z,19.69
2023-08-13T01:38:47.456Z,19.64
2023-08-13T01:43:51.894Z,19.62
2023-08-13T01:48:53.922Z,19.70
2023-08-13T01:53:56.195Z,19.63
2023-08-13T01:58:58.017Z,19.45
2023-08-13T02:03:59.893Z,19.43
2023-08-13T02:09:03.660Z,19.43
2023-08-13T02:14:05.720Z,19.43
2023-08-13T02:19:07.518Z,19.24
2023-08-13T02:24:09.336Z,19.18
2023-08-13T02:29:11.627Z,19.36
2023-08-13T02:34:13.625Z,19.35
2023-08-13T02:39:16.317Z,19.31
2023-08-13T02:44:18.745Z,19.32
2023-08-13T02:49:20.437Z,19.22
2023-08-13T02:54:22.917Z,18.95
2023-08-13T02:59:26.317Z,18.78
2023-08-13T03:04:28.317Z,18.70
2023-08-13T03:09:30.031Z,18.85
2023-08-13T03:14:31.983Z,18.88
2023-08-13T03:19:34.269Z,18.70
2023-08-13T03:24:36.188Z,18.55
2023-08-13T03:29:38.836Z,18.63
2023-08-13T03:34:42.862Z,18.70
2023-08-13T03:39:45.265Z,18.62
2023-08-13T03:44:47.003Z,18.57
2023-08-13T03:49:50.171Z,18.39
2023-08-13T03:54:52.013Z,18.45
2023-08-13T03:59:54.050Z,18.54
2023-08-13T04:04:56.093Z,18.55
2023-08-13T04:09:58.414Z,18.58
2023-08-13T04:15:03.869Z,18.75
2023-08-13T04:20:06.723Z,18.78
2023-08-13T04:25:09.596Z,18.77
2023-08-13T04:30:11.915Z,18.69
2023-08-13T04:35:13.841Z,18.76
2023-08-13T04:40:15.916Z,18.78
2023-08-13T04:45:18.058Z,18.75
2023-08-13T04:50:20.557Z,18.94
2023-08-13T04:55:22.547Z,19.12
2023-08-13T05:00:24.640Z,19.04
2023-08-13T05:05:27.828Z,19.23
2023-08-13T05:10:30.318Z,19.46
2023-08-13T05:15:32.208Z,19.38
2023-08-13T05:20:34.481Z,19.52
2023-08-13T05:25:39.778Z,19.46
2023-08-13T05:30:43.913Z,19.53
2023-08-13T05:35:46.422Z,19.78
2023-08-13T05:40:51.186Z,20.04
2023-08-13T05:45:53.080Z,20.19
2023-08-13T05:50:55.581Z,20.33
2023-08-13T05:56:03.319Z,20.46
2023-08-13T06:01:05.123Z,20.61
2023-08-13T06:06:07.241Z,20.74
2023-08-13T06:11:09.022Z,20.92
2023-08-13T06:16:12.930Z,21.08
2023-08-13T06:21:14.963Z,21.22
2023-08-13T06:26:16.936Z,21.36
2023-08-13T06:31:36.937Z,21.48
2023-08-13T06:36:42.963Z,21.64
2023-08-13T06:41:44.853Z,21.86
2023-08-13T06:46:48.616Z,22.15
2023-08-13T06:51:50.551Z,22.38
2023-08-13T06:56:52.610Z,22.59
2023-08-13T07:01:55.187Z,22.77
2023-08-13T07:06:57.400Z,22.98
2023-08-13T07:11:59.242Z,23.28
2023-08-13T07:17:01.235Z,23.41
2023-08-13T07:22:03.213Z,23.52
2023-08-13T07:27:05.602Z,23.60
2023-08-13T07:32:08.021Z,23.66
2023-08-13T07:37:10.205Z,23.68
2023-08-13T07:42:12.282Z,23.69
2023-08-13T07:47:15.106Z,23.81
2023-08-13T07:52:17.257Z,23.87
2023-08-13T07:57:19.457Z,23.84
2023-08-13T08:02:21.135Z,23.83
2023-08-13T08:07:23.334Z,23.82
2023-08-13T08:12:25.519Z,23.83
2023-08-13T08:17:29.284Z,23.88
2023-08-13T08:22:31.549Z,23.96
2023-08-13T08:27:34.042Z,23.94
2023-08-13T08:32:36.839Z,23.96
2023-08-13T08:37:39.009Z,24.01
2023-08-13T08:42:42.933Z,24.04
2023-08-13T08:47:47.902Z,24.04
2023-08-13T08:52:50.539Z,24.13
2023-08-13T08:57:56.744Z,24.23
2023-08-13T09:02:58.941Z,24.29
2023-08-13T09:08:01.131Z,24.53
2023-08-13T09:13:02.942Z,24.78
2023-08-13T09:18:06.369Z,24.93
2023-08-13T09:23:08.167Z,25.19
2023-08-13T09:28:10.005Z,25.36
2023-08-13T09:33:15.519Z,25.65
2023-08-13T09:38:17.537Z,25.91
2023-08-13T09:43:25.638Z,26.07
2023-08-13T09:48:28.611Z,26.12
2023-08-13T09:53:34.091Z,26.32
2023-08-13T09:58:37.118Z,26.23
2023-08-13T10:03:40.663Z,26.36
2023-08-13T10:08:43.551Z,26.53
2023-08-13T10:13:46.425Z,26.58
2023-08-13T10:18:48.172Z,26.75
2023-08-13T10:23:50.034Z,26.77
2023-08-13T10:28:55.460Z,26.66
2023-08-13T10:34:12.983Z,26.51
2023-08-13T10:39:30.491Z,26.54
2023-08-13T10:44:41.516Z,26.58
2023-08-13T10:49:43.370Z,26.62
2023-08-13T10:54:45.138Z,26.70
2023-08-13T10:59:47.141Z,26.67
2023-08-13T11:04:49.777Z,26.66
2023-08-13T11:09:51.920Z,26.83
2023-08-13T11:14:54.183Z,27.01
2023-08-13T11:19:58.026Z,27.28
2023-08-13T11:24:59.849Z,27.29
2023-08-13T11:30:02.730Z,27.35
2023-08-13T11:35:13.082Z,27.42
2023-08-13T11:40:16.867Z,27.45
2023-08-13T11:45:18.696Z,27.47
2023-08-13T11:50:26.280Z,27.55
2023-08-13T11:55:28.304Z,27.65
2023-08-13T12:00:34.760Z,27.88
2023-08-13T12:05:38.098Z,27.95
2023-08-13T12:10:41.345Z,27.96
2023-08-13T12:15:43.704Z,27.96
2023-08-13T12:20:45.946Z,28.04
2023-08-13T12:25:48.338Z,28.14
2023-08-13T12:30:50.222Z,28.19
2023-08-13T12:35:52.013Z,28.31
2023-08-13T12:40:53.724Z,28.46
2023-08-13T12:45:55.829Z,28.64
2023-08-13T12:50:57.660Z,28.86
2023-08-13T12:56:06.544Z,29.16
2023-08-13T13:01:09.251Z,29.32
2023-08-13T13:06:11.303Z,29.48
2023-08-13T13:11:13.046Z,29.18
2023-08-13T13:16:14.792Z,29.20
2023-08-13T13:21:16.750Z,29.36
2023-08-13T13:26:18.966Z,29.68
2023-08-13T13:31:20.817Z,29.47
2023-08-13T13:36:23.194Z,29.26
2023-08-13T13:41:25.299Z,29.49
2023-08-13T13:46:27.617Z,29.39
2023-08-13T13:51:29.460Z,29.44
2023-08-13T13:56:31.282Z,29.48
2023-08-13T14:01:33.143Z,29.75
2023-08-13T14:06:34.946Z,29.51
2023-08-13T14:11:39.352Z,29.18
2023-08-13T14:16:42.354Z,28.99
2023-08-13T14:21:45.754Z,28.79
2023-08-13T14:26:50.502Z,28.66
2023-08-13T14:31:52.440Z,28.56
2023-08-13T14:36:55.794Z,28.45
2023-08-13T14:41:58.994Z,28.18
2023-08-13T14:47:00.860Z,27.87
2023-08-13T14:52:03.068Z,27.68
2023-08-13T14:57:05.101Z,27.53
2023-08-13T15:02:07.389Z,27.30
2023-08-13T15:07:09.101Z,27.21
2023-08-13T15:12:10.810Z,27.08
2023-08-13T15:17:12.565Z,26.99
2023-08-13T15:22:14.639Z,26.91
2023-08-13T15:27:16.766Z,26.81
2023-08-13T15:32:18.765Z,26.73
2023-08-13T15:37:20.681Z,26.63
2023-08-13T15:42:22.432Z,26.65
2023-08-13T15:47:24.407Z,26.68
2023-08-13T15:52:26.678Z,26.83
2023-08-13T15:57:28.677Z,26.85
2023-08-13T16:02:30.599Z,26.86
2023-08-13T16:07:32.282Z,26.87
2023-08-13T16:12:34.001Z,26.88
2023-08-13T16:17:37.243Z,26.85
2023-08-13T16:22:41.109Z,26.94
2023-08-13T16:27:42.928Z,27.10
2023-08-13T16:32:44.885Z,27.42
2023-08-13T16:37:46.697Z,27.62
2023-08-13T16:43:04.337Z,27.60
2023-08-13T16:48:08.645Z,27.55
2023-08-13T16:53:10.411Z,27.39
2023-08-13T16:58:12.318Z,27.17
2023-08-13T17:03:14.194Z,27.03
2023-08-13T17:08:16.000Z,27.01
2023-08-13T17:13:17.895Z,26.95
2023-08-13T17:18:19.608Z,26.94
2023-08-13T17:23:23.121Z,26.89
2023-08-13T17:28:24.938Z,26.73
2023-08-13T17:33:27.016Z,26.67
2023-08-13T17:38:29.022Z,26.64
2023-08-13T17:43:30.824Z,26.51
2023-08-13T17:48:32.588Z,26.15
2023-08-13T17:53:34.362Z,25.80
2023-08-13T17:58:50.996Z,25.60
2023-08-13T18:03:57.861Z,25.74
2023-08-13T18:09:05.546Z,25.75
2023-08-13T18:14:07.822Z,25.87
2023-08-13T18:19:09.532Z,25.83
2023-08-13T18:24:11.500Z,25.66
2023-08-13T18:29:13.669Z,25.13
2023-08-13T18:34:15.451Z,25.06
2023-08-13T18:39:17.447Z,25.03
2023-08-13T18:44:19.927Z,24.99
2023-08-13T18:49:21.629Z,24.79
2023-08-13T18:54:23.441Z,24.43
2023-08-13T18:59:25.430Z,24.30
2023-08-13T19:04:27.183Z,24.32
2023-08-13T19:09:32.714Z,24.30
2023-08-13T19:14:34.923Z,23.88
2023-08-13T19:19:36.748Z,23.62
2023-08-13T19:24:38.466Z,23.59
2023-08-13T19:29:41.073Z,23.71
2023-08-13T19:34:42.909Z,23.70
2023-08-13T19:39:44.636Z,23.76
2023-08-13T19:44:46.458Z,23.53
2023-08-13T19:49:48.226Z,23.34
2023-08-13T19:54:50.234Z,23.22
2023-08-13T19:59:52.261Z,23.21
2023-08-13T20:04:53.984Z,23.30
2023-08-13T20:09:56.082Z,23.11
2023-08-13T20:14:58.634Z,22.93
2023-08-13T20:20:00.423Z,23.05
2023-08-13T20:25:02.178Z,23.21
2023-08-13T20:30:04.403Z,23.11
2023-08-13T20:35:06.346Z,22.91
2023-08-13T20:40:10.622Z,22.77
2023-08-13T20:45:12.366Z,22.77
2023-08-13T20:50:17.741Z,22.74
2023-08-13T20:55:21.622Z,22.69
2023-08-13T21:00:23.773Z,22.68
2023-08-13T21:05:26.611Z,22.79
2023-08-13T21:10:28.700Z,22.82
2023-08-13T21:15:30.543Z,22.94
2023-08-13T21:20:32.607Z,22.83
2023-08-13T21:25:34.634Z,22.43
2023-08-13T21:30:36.450Z,22.51
2023-08-13T21:35:38.698Z,22.59
2023-08-13T21:40:40.458Z,22.55
2023-08-13T21:45:42.247Z,22.72
2023-08-13T21:50:45.088Z,22.81
2023-08-13T21:55:46.898Z,22.84
2023-08-13T22:00:48.809Z,22.64
2023-08-13T22:05:50.585Z,22.64
2023-08-13T22:10:52.342Z,22.68
2023-08-13T22:15:54.107Z,22.77
2023-08-13T22:20:56.153Z,22.80
2023-08-13T22:26:08.592Z,22.43
2023-08-13T22:31:19.529Z,22.30
2023-08-13T22:36:21.366Z,22.32
2023-08-13T22:41:25.074Z,22.49
2023-08-13T22:46:28.072Z,22.65
2023-08-13T22:51:30.488Z,22.80
2023-08-13T22:56:32.654Z,22.97
2023-08-13T23:01:34.871Z,23.03
2023-08-13T23:06:36.541Z,23.10
2023-08-13T23:11:38.637Z,23.13
2023-08-13T23:16:40.350Z,23.07
2023-08-13T23:21:43.228Z,22.99
2023-08-13T23:26:44.950Z,22.87
2023-08-13T23:31:47.535Z,22.83
2023-08-13T23:36:49.462Z,22.84
2023-08-13T23:41:52.002Z,22.72
2023-08-13T23:46:58.190Z,22.58
2023-08-13T23:51:59.952Z,22.56
2023-08-13T23:57:02.523Z,22.57
